Time;durP1;ratioP1;P1;durP2;ratioP2;P2;SDS_P1;SDS_P2;PMS_P1;PMS_P2;Temp;Humidity;BMP_temperature;BMP_pressure;BME280_temperature;BME280_humidity;BME280_pressure;Samples;Min_cycle;Max_cycle;Signal;HPM_P1;HPM_P2
2022/07/20 00:01:08;;;;;;;2.78;1.30;;;;;;;;;;10277210;28;20041;-68
2022/07/20 00:06:06;;;;;;;2.17;1.30;;;;;;;;;;10277324;28;20075;-68
2022/07/20 00:11:21;;;;;;;3.38;1.40;;;;;;;;;;10275585;28;20052;-68
2022/07/20 00:16:20;;;;;;;4.55;1.23;;;;;;;;;;10274910;28;20084;-67
2022/07/20 00:21:19;;;;;;;1.50;1.35;;;;;;;;;;10276347;28;20192;-68
2022/07/20 00:26:18;;;;;;;4.25;1.40;;;;;;;;;;10276397;28;20092;-69
2022/07/20 00:31:17;;;;;;;2.03;1.55;;;;;;;;;;10275422;28;20065;-68
2022/07/20 00:36:15;;;;;;;1.83;1.20;;;;;;;;;;10276004;28;20083;-68
2022/07/20 00:41:14;;;;;;;1.90;1.15;;;;;;;;;;10273440;28;20045;-68
2022/07/20 00:46:13;;;;;;;2.10;1.42;;;;;;;;;;10274765;28;20048;-68
2022/07/20 00:51:12;;;;;;;2.17;1.25;;;;;;;;;;10274306;28;20078;-69
2022/07/20 00:56:11;;;;;;;1.60;1.15;;;;;;;;;;10273682;28;20084;-69
2022/07/20 01:01:09;;;;;;;1.80;1.40;;;;;;;;;;10273453;28;20073;-68
2022/07/20 01:06:09;;;;;;;2.92;1.40;;;;;;;;;;10273196;28;20123;-68
2022/07/20 01:11:08;;;;;;;1.60;1.20;;;;;;;;;;10272448;28;20517;-67
2022/07/20 01:16:06;;;;;;;3.85;1.55;;;;;;;;;;10273909;28;20077;-68
2022/07/20 01:21:06;;;;;;;2.65;1.75;;;;;;;;;;10273656;28;20045;-68
2022/07/20 01:26:04;;;;;;;2.92;1.50;;;;;;;;;;10273132;28;20073;-67
2022/07/20 01:31:03;;;;;;;2.78;1.30;;;;;;;;;;10272876;28;20450;-67
2022/07/20 01:36:01;;;;;;;2.53;1.27;;;;;;;;;;10273061;28;20072;-68
2022/07/20 01:41:01;;;;;;;1.92;1.00;;;;;;;;;;10272862;28;20061;-67
2022/07/20 01:45:59;;;;;;;3.58;1.58;;;;;;;;;;10273045;28;20064;-67
2022/07/20 01:50:57;;;;;;;3.72;1.63;;;;;;;;;;10272909;28;20094;-67
2022/07/20 01:55:56;;;;;;;1.25;1.15;;;;;;;;;;10273514;28;20533;-68
2022/07/20 02:00:56;;;;;;;2.95;1.33;;;;;;;;;;10273735;28;20080;-67
2022/07/20 02:05:54;;;;;;;2.15;1.27;;;;;;;;;;10272089;28;20072;-67
2022/07/20 02:10:52;;;;;;;2.63;1.40;;;;;;;;;;10272771;28;20080;-68
2022/07/20 02:21:08;;;;;;;2.92;1.45;;;;;;;;;;10281369;28;20044;-67
2022/07/20 02:26:06;;;;;;;2.00;1.38;;;;;;;;;;10281074;28;20088;-67
2022/07/20 02:31:05;;;;;;;1.70;1.30;;;;;;;;;;10278774;28;20056;-68
2022/07/20 02:36:03;;;;;;;2.90;1.80;;;;;;;;;;10279029;28;20073;-68
2022/07/20 02:41:03;;;;;;;1.88;1.67;;;;;;;;;;10279370;28;20418;-68
2022/07/20 02:46:02;;;;;;;1.75;1.58;;;;;;;;;;10278903;28;20073;-68
2022/07/20 02:51:00;;;;;;;2.45;1.48;;;;;;;;;;10278854;28;20065;-67
2022/07/20 02:55:58;;;;;;;3.25;1.23;;;;;;;;;;10279133;28;20079;-68
2022/07/20 03:00:58;;;;;;;3.28;1.67;;;;;;;;;;10278855;28;20075;-68
2022/07/20 03:05:56;;;;;;;1.65;1.52;;;;;;;;;;10278567;28;20483;-68
2022/07/20 03:10:55;;;;;;;2.58;1.83;;;;;;;;;;10278301;28;20079;-68
2022/07/20 03:15:53;;;;;;;2.42;1.75;;;;;;;;;;10278099;28;20068;-68
2022/07/20 03:20:53;;;;;;;2.78;1.80;;;;;;;;;;10277462;28;20454;-67
2022/07/20 03:25:51;;;;;;;5.60;2.78;;;;;;;;;;10277137;28;20095;-67
2022/07/20 03:30:49;;;;;;;2.85;2.55;;;;;;;;;;10276784;28;20095;-67
2022/07/20 03:35:48;;;;;;;3.58;3.00;;;;;;;;;;10277421;28;20514;-67
2022/07/20 03:40:47;;;;;;;4.50;1.83;;;;;;;;;;10276875;28;20076;-69
2022/07/20 03:45:45;;;;;;;3.95;2.60;;;;;;;;;;10274973;28;20049;-69
2022/07/20 03:50:45;;;;;;;19.15;14.18;;;;;;;;;;10277286;28;20112;-69
2022/07/20 03:55:45;;;;;;;6.45;2.10;;;;;;;;;;10275906;28;20069;-68
2022/07/20 04:00:44;;;;;;;7.05;2.05;;;;;;;;;;10276552;28;20099;-68
2022/07/20 04:05:43;;;;;;;3.30;1.85;;;;;;;;;;10275945;28;20079;-68
2022/07/20 04:10:41;;;;;;;10.93;6.68;;;;;;;;;;10276863;28;20049;-69
2022/07/20 04:15:39;;;;;;;4.07;2.05;;;;;;;;;;10276097;28;20053;-68
2022/07/20 04:20:42;;;;;;;3.83;2.53;;;;;;;;;;10270078;28;20120;-69
2022/07/20 04:25:40;;;;;;;5.55;1.70;;;;;;;;;;10271809;28;20060;-68
2022/07/20 04:30:38;;;;;;;8.98;2.58;;;;;;;;;;10275555;28;20142;-67
2022/07/20 04:35:36;;;;;;;4.03;1.73;;;;;;;;;;10275420;28;20073;-68
2022/07/20 04:40:36;;;;;;;6.03;3.00;;;;;;;;;;10266515;28;20079;-68
2022/07/20 04:45:34;;;;;;;3.78;1.95;;;;;;;;;;10274306;28;20045;-68
2022/07/20 04:50:33;;;;;;;8.18;2.17;;;;;;;;;;10274751;28;20120;-68
2022/07/20 04:55:31;;;;;;;2.38;2.13;;;;;;;;;;10274184;28;20069;-68
2022/07/20 05:00:31;;;;;;;4.32;1.75;;;;;;;;;;10273549;28;20546;-68
2022/07/20 05:05:29;;;;;;;5.80;2.00;;;;;;;;;;10273619;28;20068;-68
2022/07/20 05:10:27;;;;;;;5.03;1.80;;;;;;;;;;10273041;28;20068;-69
2022/07/20 05:15:25;;;;;;;4.93;2.00;;;;;;;;;;10268477;28;20396;-68
2022/07/20 05:20:25;;;;;;;2.85;1.83;;;;;;;;;;10274522;28;20477;-68
2022/07/20 05:25:24;;;;;;;7.93;2.17;;;;;;;;;;10272955;28;20202;-67
2022/07/20 05:30:26;;;;;;;5.43;2.13;;;;;;;;;;10274339;28;20375;-68
2022/07/20 05:35:26;;;;;;;8.30;1.85;;;;;;;;;;10271410;28;20069;-68
2022/07/20 05:40:24;;;;;;;4.43;2.50;;;;;;;;;;10266363;28;20164;-67
2022/07/20 05:45:23;;;;;;;4.90;2.47;;;;;;;;;;10272286;28;20067;-68
2022/07/20 05:50:21;;;;;;;4.80;1.90;;;;;;;;;;10272460;28;20056;-68
2022/07/20 05:55:21;;;;;;;12.85;9.38;;;;;;;;;;10275184;28;20087;-68
2022/07/20 06:00:19;;;;;;;3.28;2.22;;;;;;;;;;10276380;28;20473;-67
2022/07/20 06:05:18;;;;;;;6.53;2.75;;;;;;;;;;10277717;28;20198;-67
2022/07/20 06:10:16;;;;;;;7.13;1.70;;;;;;;;;;10273555;28;20075;-67
2022/07/20 06:15:15;;;;;;;10.32;4.53;;;;;;;;;;10267614;28;20493;-68
2022/07/20 06:20:15;;;;;;;2.28;1.58;;;;;;;;;;10273999;28;20068;-67
2022/07/20 06:25:14;;;;;;;8.68;1.70;;;;;;;;;;10275408;28;20075;-66
2022/07/20 06:30:13;;;;;;;7.28;2.42;;;;;;;;;;10274748;28;20518;-66
2022/07/20 06:35:12;;;;;;;3.85;2.30;;;;;;;;;;10276446;28;20481;-66
2022/07/20 06:40:11;;;;;;;6.00;4.93;;;;;;;;;;10279297;28;20518;-67
2022/07/20 06:45:10;;;;;;;7.93;2.95;;;;;;;;;;10278542;28;20075;-67
2022/07/20 06:50:08;;;;;;;5.78;3.35;;;;;;;;;;10271569;28;20506;-66
2022/07/20 06:55:09;;;;;;;6.47;2.10;;;;;;;;;;10270175;28;20430;-66
2022/07/20 07:00:08;;;;;;;5.97;1.50;;;;;;;;;;10267273;28;20072;-67
2022/07/20 07:05:14;;;;;;;3.45;1.90;;;;;;;;;;10272534;28;20516;-65
2022/07/20 07:10:14;;;;;;;3.88;1.80;;;;;;;;;;10272861;28;20494;-66
2022/07/20 07:15:12;;;;;;;3.13;1.48;;;;;;;;;;10272362;28;20083;-67
2022/07/20 07:20:11;;;;;;;4.55;1.67;;;;;;;;;;10272901;28;20485;-68
2022/07/20 07:25:10;;;;;;;7.65;1.95;;;;;;;;;;10270635;28;20278;-67
2022/07/20 07:30:10;;;;;;;9.07;1.50;;;;;;;;;;10247910;28;20574;-67
2022/07/20 07:35:09;;;;;;;3.45;1.80;;;;;;;;;;10255770;28;20886;-68
2022/07/20 07:40:09;;;;;;;5.78;2.03;;;;;;;;;;10270220;28;20076;-66
2022/07/20 07:45:08;;;;;;;3.35;2.03;;;;;;;;;;10269806;28;20753;-66
2022/07/20 07:50:08;;;;;;;2.22;1.40;;;;;;;;;;10269732;28;20091;-67
2022/07/20 07:55:07;;;;;;;4.60;2.00;;;;;;;;;;10261613;28;20076;-68
2022/07/20 08:00:06;;;;;;;7.65;2.15;;;;;;;;;;10261322;28;20085;-66
2022/07/20 08:05:10;;;;;;;8.55;2.33;;;;;;;;;;10265513;28;20079;-69
2022/07/20 08:10:08;;;;;;;1.70;1.50;;;;;;;;;;10263988;28;20068;-67
2022/07/20 08:15:07;;;;;;;7.50;2.40;;;;;;;;;;10268101;28;20071;-69
2022/07/20 08:20:06;;;;;;;2.42;1.80;;;;;;;;;;10270031;28;20079;-68
2022/07/20 08:25:06;;;;;;;3.75;1.38;;;;;;;;;;10274776;28;20450;-68
2022/07/20 08:30:05;;;;;;;2.75;1.60;;;;;;;;;;10272330;28;20486;-68
2022/07/20 08:35:23;;;;;;;3.50;2.22;;;;;;;;;;10269198;28;20084;-67
2022/07/20 08:40:23;;;;;;;7.15;1.60;;;;;;;;;;10272090;28;20076;-68
2022/07/20 08:45:22;;;;;;;4.72;1.65;;;;;;;;;;10268659;28;20068;-67
2022/07/20 08:50:22;;;;;;;3.40;1.52;;;;;;;;;;10267155;28;20068;-69
2022/07/20 08:55:20;;;;;;;4.00;1.83;;;;;;;;;;10261776;28;20080;-68
2022/07/20 09:00:20;;;;;;;6.70;1.80;;;;;;;;;;10264864;28;20068;-69
2022/07/20 09:05:20;;;;;;;10.38;1.60;;;;;;;;;;10264186;28;20510;-67
2022/07/20 09:10:19;;;;;;;5.22;2.45;;;;;;;;;;10268926;28;20072;-68
2022/07/20 09:15:30;;;;;;;6.28;2.08;;;;;;;;;;10268920;28;20060;-67
2022/07/20 09:20:29;;;;;;;3.13;1.75;;;;;;;;;;10268141;28;20483;-67
2022/07/20 09:25:28;;;;;;;2.67;1.60;;;;;;;;;;10267535;28;20534;-67
2022/07/20 09:30:26;;;;;;;3.75;1.90;;;;;;;;;;10271354;28;20084;-68
2022/07/20 09:35:29;;;;;;;4.38;2.40;;;;;;;;;;10268651;28;20132;-68
2022/07/20 09:40:28;;;;;;;3.40;1.42;;;;;;;;;;10268251;28;20088;-68
2022/07/20 09:45:27;;;;;;;3.05;2.08;;;;;;;;;;10270442;28;20076;-68
2022/07/20 09:50:44;;;;;;;2.58;2.05;;;;;;;;;;10269370;28;20077;-68
2022/07/20 09:55:43;;;;;;;4.53;1.70;;;;;;;;;;10270411;28;20068;-67
2022/07/20 10:00:41;;;;;;;2.78;1.58;;;;;;;;;;10265885;28;20080;-68
2022/07/20 10:05:46;;;;;;;5.63;2.30;;;;;;;;;;10266417;28;20087;-68
2022/07/20 10:10:44;;;;;;;3.35;2.10;;;;;;;;;;10265932;28;20119;-69
2022/07/20 10:15:49;;;;;;;3.28;1.73;;;;;;;;;;10264494;28;20067;-66
2022/07/20 10:20:49;;;;;;;1.60;1.50;;;;;;;;;;10272601;28;20076;-67
2022/07/20 10:25:47;;;;;;;3.80;1.60;;;;;;;;;;10269588;28;20095;-67
2022/07/20 10:30:52;;;;;;;5.28;2.08;;;;;;;;;;10268757;28;20112;-67
2022/07/20 10:35:52;;;;;;;3.50;1.70;;;;;;;;;;10272401;28;20069;-65
2022/07/20 10:46:32;;;;;;;3.33;1.52;;;;;;;;;;10273809;28;20076;-66
2022/07/20 10:51:32;;;;;;;2.40;2.05;;;;;;;;;;10271159;28;20083;-67
2022/07/20 10:56:30;;;;;;;2.38;1.65;;;;;;;;;;10270724;28;20073;-67
2022/07/20 11:01:29;;;;;;;6.88;1.95;;;;;;;;;;10281131;28;20518;-67
2022/07/20 11:06:27;;;;;;;8.35;2.00;;;;;;;;;;10279162;28;20075;-68
2022/07/20 11:11:27;;;;;;;5.35;2.20;;;;;;;;;;10275513;28;20089;-67
2022/07/20 11:16:27;;;;;;;4.50;1.80;;;;;;;;;;10278957;28;20069;-68
2022/07/20 11:21:30;;;;;;;1.95;1.60;;;;;;;;;;10274316;28;20069;-68
2022/07/20 11:26:35;;;;;;;2.97;1.80;;;;;;;;;;10269079;28;20325;-68
2022/07/20 11:31:34;;;;;;;3.00;1.60;;;;;;;;;;10277327;28;20092;-68
2022/07/20 11:36:34;;;;;;;7.45;2.50;;;;;;;;;;10268587;28;20072;-68
2022/07/20 11:41:34;;;;;;;4.25;2.00;;;;;;;;;;10276483;28;20091;-67
2022/07/20 11:46:38;;;;;;;2.33;2.00;;;;;;;;;;10273842;28;20486;-68
2022/07/20 11:51:37;;;;;;;3.13;1.88;;;;;;;;;;10272618;28;20072;-68
2022/07/20 11:56:36;;;;;;;2.30;2.10;;;;;;;;;;10276569;28;20075;-69
2022/07/20 12:01:36;;;;;;;2.78;1.70;;;;;;;;;;10271950;28;20374;-66
2022/07/20 12:06:39;;;;;;;2.65;1.95;;;;;;;;;;10274703;28;20457;-67
2022/07/20 12:11:52;;;;;;;3.67;2.10;;;;;;;;;;10274770;28;20564;-66
2022/07/20 12:16:51;;;;;;;3.50;2.20;;;;;;;;;;10274565;28;20079;-67
2022/07/20 12:21:51;;;;;;;6.40;2.92;;;;;;;;;;10267426;28;20095;-67
2022/07/20 12:26:49;;;;;;;3.85;2.75;;;;;;;;;;10271246;28;20079;-69
2022/07/20 12:31:57;;;;;;;4.60;2.10;;;;;;;;;;10273475;28;20110;-68
2022/07/20 12:36:57;;;;;;;4.13;2.78;;;;;;;;;;10271185;28;20406;-67
2022/07/20 12:42:08;;;;;;;8.30;2.47;;;;;;;;;;10267686;28;20076;-66
2022/07/20 12:47:19;;;;;;;;;;;;;;;;;;10266393;28;20537;-68
2022/07/20 12:52:30;;;;;;;4.78;3.25;;;;;;;;;;10268782;28;19967;-68
2022/07/20 12:57:28;;;;;;;3.17;2.08;;;;;;;;;;10265292;28;20071;-67
2022/07/20 13:02:27;;;;;;;5.65;2.35;;;;;;;;;;10268911;28;20068;-68
2022/07/20 13:07:25;;;;;;;8.00;3.25;;;;;;;;;;10264215;28;20373;-68
2022/07/20 13:12:25;;;;;;;5.20;2.28;;;;;;;;;;10240870;28;20131;-67
2022/07/20 13:17:23;;;;;;;7.95;5.38;;;;;;;;;;10262878;28;20068;-69
2022/07/20 13:22:21;;;;;;;5.18;2.22;;;;;;;;;;10268560;28;20465;-68
2022/07/20 13:27:20;;;;;;;5.28;2.78;;;;;;;;;;10267401;28;20083;-65
2022/07/20 13:32:19;;;;;;;5.60;3.90;;;;;;;;;;10271218;28;20080;-65
2022/07/20 13:37:18;;;;;;;6.22;3.10;;;;;;;;;;10269376;28;20056;-67
2022/07/20 13:42:16;;;;;;;7.10;2.70;;;;;;;;;;10272402;28;20071;-67
2022/07/20 13:47:14;;;;;;;3.72;3.15;;;;;;;;;;10265637;28;20060;-67
2022/07/20 13:52:17;;;;;;;3.25;2.47;;;;;;;;;;10263044;28;20533;-66
2022/07/20 13:57:21;;;;;;;4.60;2.75;;;;;;;;;;10265529;28;20071;-65
2022/07/20 14:02:19;;;;;;;17.40;3.03;;;;;;;;;;10267045;28;20084;-66
2022/07/20 14:07:19;;;;;;;8.07;2.83;;;;;;;;;;10263293;28;20809;-65
2022/07/20 14:12:17;;;;;;;5.25;3.15;;;;;;;;;;10274069;28;20075;-69
2022/07/20 14:17:17;;;;;;;3.30;2.78;;;;;;;;;;10275816;28;20198;-67
2022/07/20 14:22:16;;;;;;;4.50;2.70;;;;;;;;;;10275008;28;20069;-68
2022/07/20 14:27:15;;;;;;;2.90;2.60;;;;;;;;;;10275945;28;20060;-68
2022/07/20 14:32:14;;;;;;;3.55;2.80;;;;;;;;;;10274973;28;20084;-67
2022/07/20 14:37:12;;;;;;;6.80;2.45;;;;;;;;;;10275707;28;20064;-67
2022/07/20 14:42:11;;;;;;;11.32;3.13;;;;;;;;;;10274745;28;20080;-66
2022/07/20 14:47:10;;;;;;;9.65;3.33;;;;;;;;;;10273142;28;20061;-65
2022/07/20 14:52:09;;;;;;;6.20;4.00;;;;;;;;;;10275685;28;20068;-67
2022/07/20 14:57:07;;;;;;;3.90;3.25;;;;;;;;;;10271973;28;20097;-68
2022/07/20 15:02:05;;;;;;;5.28;3.90;;;;;;;;;;10272379;28;20079;-67
2022/07/20 15:07:05;;;;;;;11.75;4.38;;;;;;;;;;10274459;28;20064;-67
2022/07/20 15:12:03;;;;;;;9.50;4.15;;;;;;;;;;10273254;28;20069;-67
2022/07/20 15:17:02;;;;;;;7.28;4.30;;;;;;;;;;10272153;28;20084;-68
2022/07/20 15:22:00;;;;;;;6.63;4.50;;;;;;;;;;10272220;28;20069;-69
2022/07/20 15:27:00;;;;;;;8.45;4.82;;;;;;;;;;10274705;28;20061;-68
2022/07/20 15:32:06;;;;;;;5.47;3.72;;;;;;;;;;10273022;28;20553;-69
2022/07/20 15:37:14;;;;;;;6.50;5.75;;;;;;;;;;10272026;28;20057;-68
2022/07/20 15:42:14;;;;;;;7.35;4.72;;;;;;;;;;10269360;28;20471;-68
2022/07/20 15:47:14;;;;;;;11.35;3.20;;;;;;;;;;10269824;28;20068;-68
2022/07/20 15:52:12;;;;;;;12.05;3.15;;;;;;;;;;10272060;28;20064;-68
2022/07/20 15:57:19;;;;;;;8.02;3.08;;;;;;;;;;10266736;28;20073;-68
2022/07/20 16:02:20;;;;;;;9.60;4.50;;;;;;;;;;10271502;28;20087;-68
2022/07/20 16:07:26;;;;;;;8.48;3.17;;;;;;;;;;10271421;28;20064;-68
2022/07/20 16:12:25;;;;;;;6.15;2.92;;;;;;;;;;10270559;28;20083;-68
2022/07/20 16:17:25;;;;;;;6.53;2.70;;;;;;;;;;10269621;28;20068;-69
2022/07/20 16:22:23;;;;;;;7.32;3.30;;;;;;;;;;10269125;28;20095;-69
2022/07/20 16:27:21;;;;;;;5.65;2.72;;;;;;;;;;10268870;28;20072;-69
2022/07/20 16:32:20;;;;;;;8.48;5.82;;;;;;;;;;10267737;28;20486;-69
2022/07/20 16:37:20;;;;;;;7.03;2.33;;;;;;;;;;10268035;28;20517;-67
2022/07/20 16:42:18;;;;;;;7.03;5.20;;;;;;;;;;10267603;28;20080;-67
2022/07/20 16:47:16;;;;;;;11.20;3.10;;;;;;;;;;10268297;28;20434;-68
2022/07/20 16:52:15;;;;;;;6.28;2.97;;;;;;;;;;10268105;28;20068;-68
2022/07/20 16:57:15;;;;;;;7.63;4.03;;;;;;;;;;10269968;28;20537;-66
2022/07/20 17:02:13;;;;;;;9.52;3.90;;;;;;;;;;10269186;28;20064;-67
2022/07/20 17:07:11;;;;;;;7.00;4.70;;;;;;;;;;10267895;28;20080;-66
2022/07/20 17:12:12;;;;;;;11.40;4.93;;;;;;;;;;10264578;28;20053;-67
2022/07/20 17:17:12;;;;;;;15.98;13.60;;;;;;;;;;10262193;28;20064;-67
2022/07/20 17:22:17;;;;;;;10.18;7.13;;;;;;;;;;10261693;28;20352;-67
2022/07/20 17:27:15;;;;;;;12.02;9.55;;;;;;;;;;10262848;28;20072;-68
2022/07/20 17:32:15;;;;;;;9.57;8.63;;;;;;;;;;10266910;28;20077;-67
2022/07/20 17:42:31;;;;;;;11.52;7.75;;;;;;;;;;10267652;28;20073;-64
2022/07/20 17:47:32;;;;;;;9.32;7.28;;;;;;;;;;10267977;28;20489;-66
2022/07/20 17:52:31;;;;;;;10.82;5.60;;;;;;;;;;10268052;28;20337;-67
2022/07/20 17:57:29;;;;;;;10.10;6.07;;;;;;;;;;10266527;28;20281;-67
2022/07/20 18:02:27;;;;;;;8.30;6.50;;;;;;;;;;10262209;28;20077;-67
2022/07/20 18:07:29;;;;;;;9.15;7.50;;;;;;;;;;10266030;28;20057;-68
2022/07/20 18:12:30;;;;;;;12.93;6.47;;;;;;;;;;10261562;28;20065;-68
2022/07/20 18:17:34;;;;;;;10.52;7.55;;;;;;;;;;10266152;28;20064;-68
2022/07/20 18:22:34;;;;;;;11.93;6.80;;;;;;;;;;10268323;28;20079;-67
2022/07/20 18:27:33;;;;;;;14.35;10.07;;;;;;;;;;10267968;28;20068;-69
2022/07/20 18:32:31;;;;;;;9.50;7.57;;;;;;;;;;10267449;28;20072;-68
2022/07/20 18:37:29;;;;;;;9.27;6.57;;;;;;;;;;10265260;28;20485;-67
2022/07/20 18:42:29;;;;;;;9.18;7.32;;;;;;;;;;10268003;28;20084;-69
2022/07/20 18:47:28;;;;;;;13.23;9.77;;;;;;;;;;10267845;28;20109;-67
2022/07/20 18:52:28;;;;;;;10.18;9.07;;;;;;;;;;10259786;28;20065;-68
2022/07/20 18:57:27;;;;;;;25.77;18.77;;;;;;;;;;10270711;28;20069;-67
2022/07/20 19:02:26;;;;;;;8.85;6.88;;;;;;;;;;10271291;28;20176;-68
2022/07/20 19:07:25;;;;;;;6.63;5.50;;;;;;;;;;10270344;28;20061;-67
2022/07/20 19:12:23;;;;;;;7.85;6.95;;;;;;;;;;10268119;28;20078;-67
2022/07/20 19:17:21;;;;;;;7.70;5.97;;;;;;;;;;10268604;28;20064;-69
2022/07/20 19:22:21;;;;;;;11.15;6.85;;;;;;;;;;10265712;28;20467;-67
2022/07/20 19:27:19;;;;;;;10.38;4.55;;;;;;;;;;10266781;28;20127;-66
2022/07/20 19:32:18;;;;;;;8.73;5.35;;;;;;;;;;10270728;28;20076;-66
2022/07/20 19:37:17;;;;;;;7.15;4.35;;;;;;;;;;10269907;28;20083;-67
2022/07/20 19:42:16;;;;;;;5.85;4.75;;;;;;;;;;10271298;28;20061;-67
2022/07/20 19:47:15;;;;;;;7.60;5.65;;;;;;;;;;10271956;28;20077;-66
2022/07/20 19:52:14;;;;;;;6.93;4.90;;;;;;;;;;10270862;28;20072;-67
2022/07/20 19:57:13;;;;;;;8.25;4.32;;;;;;;;;;10271636;28;20104;-66
2022/07/20 20:02:14;;;;;;;6.68;4.80;;;;;;;;;;10270349;28;20074;-66
2022/07/20 20:07:13;;;;;;;6.15;3.78;;;;;;;;;;10271180;28;21213;-67
2022/07/20 20:12:11;;;;;;;5.53;4.70;;;;;;;;;;10270189;28;20076;-66
2022/07/20 20:17:09;;;;;;;7.50;4.38;;;;;;;;;;10270864;28;20067;-67
2022/07/20 20:22:09;;;;;;;8.32;4.07;;;;;;;;;;10271182;28;20167;-67
2022/07/20 20:27:07;;;;;;;12.55;4.25;;;;;;;;;;10270785;28;20099;-66
2022/07/20 20:32:06;;;;;;;6.15;4.10;;;;;;;;;;10270833;28;20085;-66
2022/07/20 20:37:04;;;;;;;4.63;3.95;;;;;;;;;;10270057;28;20076;-66
2022/07/20 20:42:04;;;;;;;6.18;3.63;;;;;;;;;;10270214;28;20065;-66
2022/07/20 20:47:03;;;;;;;4.97;3.80;;;;;;;;;;10269225;28;20069;-67
2022/07/20 20:52:01;;;;;;;5.68;3.65;;;;;;;;;;10269894;28;20064;-68
2022/07/20 20:57:00;;;;;;;5.35;3.83;;;;;;;;;;10269445;28;20497;-67
2022/07/20 21:02:00;;;;;;;6.15;3.90;;;;;;;;;;10268884;28;20060;-66
2022/07/20 21:06:58;;;;;;;9.13;3.70;;;;;;;;;;10268843;28;20079;-68
2022/07/20 21:11:57;;;;;;;7.22;3.30;;;;;;;;;;10269393;28;20126;-67
2022/07/20 21:16:55;;;;;;;8.57;3.75;;;;;;;;;;10268316;28;20064;-67
2022/07/20 21:21:55;;;;;;;4.85;3.80;;;;;;;;;;10266746;28;20063;-68
2022/07/20 21:26:53;;;;;;;8.27;3.67;;;;;;;;;;10271590;28;20083;-67
2022/07/20 21:31:52;;;;;;;5.22;3.45;;;;;;;;;;10271964;28;20087;-68
2022/07/20 21:36:52;;;;;;;5.90;3.83;;;;;;;;;;10271239;28;20073;-67
2022/07/20 21:41:52;;;;;;;4.63;3.50;;;;;;;;;;10270069;28;20069;-67
2022/07/20 21:46:50;;;;;;;6.82;3.20;;;;;;;;;;10265076;28;20069;-67
2022/07/20 21:51:49;;;;;;;4.47;2.63;;;;;;;;;;10267130;28;20131;-67
2022/07/20 21:56:47;;;;;;;5.75;3.28;;;;;;;;;;10265044;28;20064;-67
2022/07/20 22:01:47;;;;;;;5.88;3.00;;;;;;;;;;10264320;28;20541;-67
2022/07/20 22:06:45;;;;;;;4.20;3.58;;;;;;;;;;10265131;28;20077;-68
2022/07/20 22:11:44;;;;;;;11.68;3.47;;;;;;;;;;10264427;28;20076;-67
2022/07/20 22:16:42;;;;;;;5.72;3.08;;;;;;;;;;10268616;28;20088;-68
2022/07/20 22:21:42;;;;;;;7.00;3.20;;;;;;;;;;10268329;28;20553;-68
2022/07/20 22:26:41;;;;;;;8.45;3.70;;;;;;;;;;10268391;28;20080;-67
2022/07/20 22:31:39;;;;;;;5.75;2.80;;;;;;;;;;10271794;28;22178;-66
2022/07/20 22:36:38;;;;;;;7.20;3.38;;;;;;;;;;10275773;28;20048;-68
2022/07/20 22:41:37;;;;;;;5.30;3.03;;;;;;;;;;10275803;28;22148;-67
2022/07/20 22:46:36;;;;;;;4.13;2.72;;;;;;;;;;10275609;28;20076;-68
2022/07/20 22:51:38;;;;;;;3.03;2.70;;;;;;;;;;10275361;28;20073;-65
2022/07/20 22:56:38;;;;;;;7.78;2.95;;;;;;;;;;10274868;28;20069;-66
2022/07/20 23:01:37;;;;;;;6.28;2.50;;;;;;;;;;10275216;28;20444;-67
2022/07/20 23:06:35;;;;;;;5.18;3.13;;;;;;;;;;10274534;28;20126;-67
2022/07/20 23:11:33;;;;;;;4.38;3.47;;;;;;;;;;10273697;28;20507;-67
2022/07/20 23:16:33;;;;;;;9.07;3.30;;;;;;;;;;10272755;28;20075;-68
2022/07/20 23:21:32;;;;;;;8.27;3.55;;;;;;;;;;10272655;28;20541;-67
2022/07/20 23:26:30;;;;;;;4.18;3.42;;;;;;;;;;10275814;28;20068;-68
2022/07/20 23:31:28;;;;;;;7.50;3.42;;;;;;;;;;10274979;28;20091;-68
2022/07/20 23:36:28;;;;;;;6.43;3.25;;;;;;;;;;10269247;28;20072;-68
2022/07/20 23:41:26;;;;;;;7.43;3.67;;;;;;;;;;10272810;28;20595;-66
2022/07/20 23:46:25;;;;;;;4.90;2.35;;;;;;;;;;10273412;28;20072;-66
2022/07/20 23:51:24;;;;;;;5.88;2.88;;;;;;;;;;10272615;28;20068;-66
2022/07/20 23:56:23;;;;;;;8.35;3.22;;;;;;;;;;10273481;28;20068;-66
